Time;durP1;ratioP1;P1;durP2;ratioP2;P2;SDS_P1;SDS_P2;PMS_P1;PMS_P2;Temp;Humidity;BMP_temperature;BMP_pressure;BME280_temperature;BME280_humidity;BME280_pressure;Samples;Min_cycle;Max_cycle;Signal;HPM_P1;HPM_P2
2023/06/15 00:04:40;;;;;;;4.25;3.22;;;;;;;21.35;69.17;100699.06;10211771;28;97219;-79
2023/06/15 00:09:45;;;;;;;4.80;3.60;;;;;;;21.38;69.14;100696.16;10212032;28;96676;-79
2023/06/15 00:14:48;;;;;;;5.40;3.45;;;;;;;21.20;69.54;100688.69;10212465;28;97324;-79
2023/06/15 00:19:53;;;;;;;5.15;3.60;;;;;;;21.04;70.13;100688.09;10211611;28;96914;-79
2023/06/15 00:24:58;;;;;;;4.53;3.20;;;;;;;21.08;69.94;100694.94;10211218;28;97301;-79
2023/06/15 00:30:01;;;;;;;4.85;3.47;;;;;;;21.03;69.99;100691.75;10217904;28;96711;-79
2023/06/15 00:35:05;;;;;;;3.55;2.95;;;;;;;21.02;70.05;100698.06;10211407;28;96699;-79
2023/06/15 00:40:11;;;;;;;6.75;3.33;;;;;;;20.55;71.44;100690.91;10211145;28;97996;-79
2023/06/15 00:45:14;;;;;;;4.35;3.33;;;;;;;20.70;71.19;100681.78;10210900;28;96994;-79
2023/06/15 00:50:19;;;;;;;4.80;3.55;;;;;;;20.67;71.11;100692.69;10208349;28;96730;-79
2023/06/15 00:55:24;;;;;;;5.35;3.28;;;;;;;20.68;70.83;100693.53;10209894;28;97009;-79
2023/06/15 01:00:27;;;;;;;5.72;3.53;;;;;;;20.64;70.96;100694.72;10210544;28;97236;-79
2023/06/15 01:05:34;;;;;;;5.80;3.63;;;;;;;20.69;70.71;100688.06;10241555;28;97789;-79
2023/06/15 01:10:39;;;;;;;5.03;3.60;;;;;;;20.50;71.09;100681.53;10250579;28;97013;-79
2023/06/15 01:15:43;;;;;;;6.22;3.53;;;;;;;20.60;71.08;100685.25;10249730;28;97020;-79
2023/06/15 01:20:48;;;;;;;5.07;3.72;;;;;;;20.39;71.22;100674.31;10249046;28;97616;-79
2023/06/15 01:26:05;;;;;;;4.45;3.47;;;;;;;20.29;71.80;100667.88;10250356;28;96573;-79
2023/06/15 01:31:09;;;;;;;5.72;3.63;;;;;;;20.07;72.35;100663.25;10219849;28;97811;-79
2023/06/15 01:36:13;;;;;;;7.53;3.50;;;;;;;20.26;71.62;100663.63;10214825;28;96889;-79
2023/06/15 01:41:19;;;;;;;4.17;3.77;;;;;;;20.08;71.95;100662.25;10248029;28;96792;-79
2023/06/15 01:46:24;;;;;;;5.28;3.45;;;;;;;20.18;71.88;100671.34;10249127;28;97659;-79
2023/06/15 01:51:29;;;;;;;5.32;3.45;;;;;;;20.17;71.71;100674.09;10248585;28;96737;-79
2023/06/15 01:56:34;;;;;;;5.13;3.50;;;;;;;20.23;71.38;100668.34;10247950;28;97528;-79
2023/06/15 02:01:37;;;;;;;5.18;3.40;;;;;;;20.11;71.72;100680.78;10248637;28;96703;-80
2023/06/15 02:06:41;;;;;;;5.32;3.75;;;;;;;20.09;71.70;100676.50;10248743;28;96909;-79
2023/06/15 02:11:46;;;;;;;5.13;3.65;;;;;;;20.08;71.75;100680.13;10247978;28;96681;-79
2023/06/15 02:16:50;;;;;;;6.85;4.13;;;;;;;19.92;72.22;100680.38;10249185;28;97020;-79
2023/06/15 02:21:54;;;;;;;6.65;4.00;;;;;;;20.12;71.67;100674.44;10248448;28;96995;-82
2023/06/15 02:26:58;;;;;;;6.15;3.85;;;;;;;20.06;71.87;100674.91;10245334;28;96760;-80
2023/06/15 02:32:02;;;;;;;4.68;3.75;;;;;;;20.25;71.08;100666.41;10213844;28;96908;-79
2023/06/15 02:37:06;;;;;;;7.32;4.47;;;;;;;20.17;71.48;100664.28;10214203;28;97589;-79
2023/06/15 02:42:11;;;;;;;6.20;4.00;;;;;;;20.33;70.92;100669.41;10214751;28;96720;-79
2023/06/15 02:47:15;;;;;;;5.53;4.10;;;;;;;20.32;70.73;100670.38;10244491;28;96830;-79
2023/06/15 02:52:18;;;;;;;5.43;3.73;;;;;;;20.23;71.09;100679.03;10255005;28;96764;-79
2023/06/15 02:57:23;;;;;;;5.53;4.00;;;;;;;20.05;71.86;100675.84;10254636;28;96783;-81
2023/06/15 03:02:27;;;;;;;4.95;4.05;;;;;;;20.08;71.53;100680.13;10253305;28;96874;-81
2023/06/15 03:07:30;;;;;;;5.67;4.07;;;;;;;19.90;72.31;100681.44;10255257;28;97549;-79
2023/06/15 03:12:35;;;;;;;6.80;4.38;;;;;;;19.89;72.29;100671.72;10254170;28;96643;-79
2023/06/15 03:17:39;;;;;;;7.03;4.68;;;;;;;19.84;72.39;100679.22;10253294;28;96771;-79
2023/06/15 03:22:42;;;;;;;7.60;4.20;;;;;;;19.76;72.73;100676.22;10252556;28;96843;-79
2023/06/15 03:27:48;;;;;;;6.07;4.55;;;;;;;19.75;72.86;100672.69;10242704;28;97052;-79
2023/06/15 03:32:53;;;;;;;6.95;4.45;;;;;;;19.83;72.74;100672.16;10213184;28;96650;-79
2023/06/15 03:37:56;;;;;;;5.65;4.53;;;;;;;19.79;72.82;100668.84;10239697;28;96949;-82
2023/06/15 03:43:01;;;;;;;6.65;4.45;;;;;;;19.66;73.61;100675.16;10252977;28;96692;-82
2023/06/15 03:48:05;;;;;;;6.40;4.38;;;;;;;19.48;74.05;100668.44;10252674;28;96553;-81
2023/06/15 03:53:11;;;;;;;7.03;3.90;;;;;;;19.44;74.57;100659.78;10232877;28;97611;-79
2023/06/15 03:58:19;;;;;;;7.03;4.75;;;;;;;19.39;74.38;100656.53;10253672;28;96675;-79
2023/06/15 04:03:22;;;;;;;7.38;4.40;;;;;;;19.16;75.64;100657.28;10252498;28;97004;-79
2023/06/15 04:08:25;;;;;;;6.05;4.20;;;;;;;19.07;76.10;100657.91;10220864;22;97355;-81
2023/06/15 04:13:30;;;;;;;5.90;4.03;;;;;;;18.99;76.10;100657.59;10250472;28;97628;-79
2023/06/15 04:18:34;;;;;;;6.45;4.47;;;;;;;18.92;76.34;100657.13;10252210;28;97118;-79
2023/06/15 04:23:37;;;;;;;5.90;4.10;;;;;;;18.83;76.88;100652.44;10251990;28;96813;-79
2023/06/15 04:28:45;;;;;;;6.75;4.18;;;;;;;18.71;77.22;100652.38;10225547;28;96786;-81
2023/06/15 04:33:48;;;;;;;8.23;4.88;;;;;;;18.67;77.48;100662.41;10210973;28;97560;-81
2023/06/15 04:38:52;;;;;;;7.50;4.95;;;;;;;18.70;77.85;100670.19;10211470;28;97129;-81
2023/06/15 04:43:56;;;;;;;7.75;4.40;;;;;;;18.68;77.60;100666.75;10211171;28;96924;-79
2023/06/15 04:49:00;;;;;;;7.47;4.68;;;;;;;18.70;77.76;100670.19;10210457;28;96685;-81
2023/06/15 04:54:04;;;;;;;6.88;4.63;;;;;;;18.70;77.67;100680.00;10210924;28;97604;-79
2023/06/15 04:59:08;;;;;;;6.25;4.57;;;;;;;18.79;77.18;100682.06;10210393;28;96759;-81
2023/06/15 05:04:11;;;;;;;;;;;;;;;18.86;77.28;100678.03;10209518;28;99083;-81
2023/06/15 05:09:15;;;;;;;7.10;4.50;;;;;;;18.85;76.77;100681.66;10210237;28;96782;-81
2023/06/15 05:14:20;;;;;;;7.07;4.90;;;;;;;18.86;77.11;100689.56;10210114;28;96752;-81
2023/06/15 05:19:24;;;;;;;6.50;4.28;;;;;;;18.81;77.30;100696.13;10233275;28;97696;-79
2023/06/15 05:24:27;;;;;;;6.87;4.50;;;;;;;18.80;77.44;100692.59;10249392;28;96998;-81
2023/06/15 05:29:32;;;;;;;7.60;4.93;;;;;;;18.68;78.55;100692.59;10249767;28;96671;-79
2023/06/15 05:34:36;;;;;;;7.88;4.40;;;;;;;18.67;78.43;100696.19;10248600;28;96631;-81
2023/06/15 05:39:39;;;;;;;6.20;4.47;;;;;;;18.62;78.87;100695.66;10250512;28;97277;-79
2023/06/15 05:44:44;;;;;;;7.38;4.43;;;;;;;18.57;79.16;100703.94;10249175;28;97402;-82
2023/06/15 05:49:47;;;;;;;6.50;4.88;;;;;;;18.60;79.21;100700.22;10249344;28;96735;-81
2023/06/15 05:54:51;;;;;;;7.30;4.53;;;;;;;18.61;79.73;100709.94;10246972;28;96744;-81
2023/06/15 05:59:56;;;;;;;8.18;4.78;;;;;;;18.58;79.45;100705.66;10249184;28;96739;-81
2023/06/15 06:04:59;;;;;;;6.80;4.55;;;;;;;18.67;79.06;100704.19;10239252;28;97578;-80
2023/06/15 06:10:03;;;;;;;6.05;4.45;;;;;;;18.77;78.91;100710.63;10208931;28;97402;-80
2023/06/15 06:15:09;;;;;;;7.03;4.77;;;;;;;18.71;80.25;100706.56;10208150;28;96987;-80
2023/06/15 06:20:13;;;;;;;6.32;4.57;;;;;;;18.77;79.50;100700.81;10208208;28;97072;-80
2023/06/15 06:25:16;;;;;;;5.63;4.35;;;;;;;18.96;79.21;100708.44;10208419;28;97253;-80
2023/06/15 06:30:22;;;;;;;7.13;4.73;;;;;;;19.11;78.54;100702.94;10208937;28;96955;-80
2023/06/15 06:35:25;;;;;;;;;;;;;;;19.22;78.78;100708.41;10208430;28;98350;-80
2023/06/15 06:40:29;;;;;;;5.75;4.40;;;;;;;19.42;77.94;100706.22;10208194;28;98013;-80
2023/06/15 06:45:33;;;;;;;8.45;5.30;;;;;;;19.62;77.67;100705.69;10206768;28;96850;-80
2023/06/15 06:50:37;;;;;;;6.35;4.30;;;;;;;19.75;77.23;100718.09;10207669;28;96909;-80
2023/06/15 06:55:42;;;;;;;7.20;4.85;;;;;;;19.85;77.12;100715.63;10207094;28;96654;-80
2023/06/15 07:00:47;;;;;;;7.25;4.90;;;;;;;19.93;76.93;100716.81;10207734;28;96629;-80
2023/06/15 07:05:50;;;;;;;6.00;4.30;;;;;;;20.02;76.78;100718.84;10205939;28;96744;-80
2023/06/15 07:10:54;;;;;;;6.80;4.67;;;;;;;20.15;76.55;100718.81;10206974;28;96776;-80
2023/06/15 07:15:59;;;;;;;6.00;4.47;;;;;;;20.46;76.09;100726.38;10212831;28;96619;-80
2023/06/15 07:21:02;;;;;;;13.90;8.52;;;;;;;20.66;75.54;100720.41;10214273;28;96679;-80
2023/06/15 07:26:06;;;;;;;5.17;4.33;;;;;;;20.94;74.82;100720.06;10213257;28;97238;-80
2023/06/15 07:31:11;;;;;;;5.45;4.10;;;;;;;21.24;74.13;100712.41;10213166;28;96916;-80
2023/06/15 07:36:14;;;;;;;4.85;3.65;;;;;;;21.58;73.21;100707.13;10212404;28;96959;-80
2023/06/15 07:41:18;;;;;;;4.73;3.30;;;;;;;21.70;72.94;100716.91;10212883;28;96636;-80
2023/06/15 07:46:23;;;;;;;4.87;4.07;;;;;;;21.80;71.86;100721.41;10212734;28;97516;-80
2023/06/15 07:51:26;;;;;;;4.70;3.42;;;;;;;22.14;70.85;100725.84;10213260;28;97709;-80
2023/06/15 07:56:45;;;;;;;5.80;3.60;;;;;;;22.31;70.47;100724.50;10212599;28;96932;-80
2023/06/15 08:01:49;;;;;;;4.70;3.75;;;;;;;22.51;70.13;100719.22;10211854;28;97579;-80
2023/06/15 08:06:53;;;;;;;4.88;3.72;;;;;;;22.82;69.40;100728.31;10213884;28;96897;-80
2023/06/15 08:11:56;;;;;;;4.40;3.80;;;;;;;22.87;69.33;100725.28;10253205;28;96716;-80
2023/06/15 08:17:01;;;;;;;4.75;3.80;;;;;;;23.05;68.69;100721.03;10252023;28;96762;-80
2023/06/15 08:22:05;;;;;;;4.95;3.80;;;;;;;23.26;68.68;100713.88;10251951;28;97904;-80
2023/06/15 08:27:10;;;;;;;;;;;;;;;23.50;67.39;100714.47;10248958;28;96682;-80
2023/06/15 08:32:15;;;;;;;;;;;;;;;23.80;66.75;100711.00;10252405;28;96674;-80
2023/06/15 08:37:18;;;;;;;5.07;3.33;;;;;;;;;;10251686;28;96880;-80
2023/06/15 08:42:25;;;;;;;4.68;3.45;;;;;;;24.00;66.97;100710.09;10250947;28;97504;-80
2023/06/15 08:47:32;;;;;;;4.72;3.50;;;;;;;24.27;66.02;100700.44;10251004;28;96631;-80
2023/06/15 08:52:37;;;;;;;4.03;3.60;;;;;;;24.42;66.28;100703.66;10225483;28;96722;-81
2023/06/15 08:57:41;;;;;;;4.88;3.85;;;;;;;24.64;65.40;100695.34;10211059;28;96705;-80
2023/06/15 09:02:47;;;;;;;4.13;3.33;;;;;;;24.80;65.35;100692.94;10211240;28;98028;-80
2023/06/15 09:07:50;;;;;;;5.65;3.65;;;;;;;24.87;64.82;100699.47;10209196;28;96896;-80
2023/06/15 09:12:55;;;;;;;5.60;3.90;;;;;;;24.89;64.28;100691.25;10209482;28;97536;-82
2023/06/15 09:18:02;;;;;;;4.75;3.65;;;;;;;25.20;63.98;100684.75;10209104;28;97160;-80
2023/06/15 09:23:10;;;;;;;5.10;3.83;;;;;;;25.22;62.70;100680.94;10209834;28;96761;-80
2023/06/15 09:28:14;;;;;;;4.57;2.92;;;;;;;25.36;62.58;100691.28;10209294;28;97396;-81
2023/06/15 09:33:19;;;;;;;4.07;3.07;;;;;;;25.61;61.49;100692.50;10209986;28;97674;-80
2023/06/15 09:38:23;;;;;;;5.30;3.45;;;;;;;25.79;61.28;100678.16;10208841;28;96768;-81
2023/06/15 09:43:33;;;;;;;3.60;3.30;;;;;;;25.94;60.55;100678.50;10209530;28;96953;-81
2023/06/15 09:48:40;;;;;;;3.40;2.70;;;;;;;26.10;60.24;100677.88;10208780;28;97062;-80
2023/06/15 09:53:43;;;;;;;4.68;3.60;;;;;;;26.25;59.76;100684.47;10209210;28;97716;-80
2023/06/15 09:58:48;;;;;;;;;;;;;;;26.29;58.88;100675.09;10208976;28;97692;-81
2023/06/15 10:03:54;;;;;;;3.53;2.60;;;;;;;26.54;59.72;100671.72;10208274;28;97003;-80
2023/06/15 10:09:01;;;;;;;4.35;3.15;;;;;;;26.70;59.25;100672.72;10208096;28;96842;-81
2023/06/15 10:14:10;;;;;;;4.18;3.05;;;;;;;26.86;58.13;100670.19;10208229;28;96724;-81
2023/06/15 10:19:16;;;;;;;4.03;2.83;;;;;;;27.09;57.73;100670.59;10207950;28;96879;-80
2023/06/15 10:24:24;;;;;;;4.65;3.55;;;;;;;27.20;58.22;100670.34;10208282;28;96709;-80
2023/06/15 10:29:36;;;;;;;3.60;3.13;;;;;;;27.34;57.47;100671.66;10207917;28;97687;-80
2023/06/15 10:34:49;;;;;;;3.35;2.78;;;;;;;27.57;57.09;100670.09;10207191;28;96785;-80
2023/06/15 10:39:55;;;;;;;4.97;3.13;;;;;;;27.67;56.70;100668.16;10208433;28;96684;-80
2023/06/15 10:44:59;;;;;;;4.35;3.00;;;;;;;27.81;55.96;100676.56;10207896;28;96575;-80
2023/06/15 10:50:16;;;;;;;3.30;2.55;;;;;;;28.06;55.71;100675.66;10211836;28;97699;-80
2023/06/15 10:55:23;;;;;;;4.63;2.90;;;;;;;28.26;54.86;100673.53;10214544;28;97462;-80
2023/06/15 11:00:26;;;;;;;4.20;2.90;;;;;;;28.45;54.56;100669.75;10244696;28;96997;-80
2023/06/15 11:05:43;;;;;;;3.67;2.88;;;;;;;28.69;54.73;100662.53;10253586;28;96803;-79
2023/06/15 11:10:46;;;;;;;3.42;2.92;;;;;;;29.04;54.47;100662.28;10254400;28;97191;-80
2023/06/15 11:16:06;;;;;;;2.95;2.67;;;;;;;29.15;51.53;100650.25;10253150;28;96802;-79
2023/06/15 11:21:25;;;;;;;3.10;2.58;;;;;;;29.44;53.04;100642.44;10253937;28;96741;-79
2023/06/15 11:26:29;;;;;;;2.97;2.60;;;;;;;29.53;51.86;100635.16;10253255;28;97044;-79
2023/06/15 11:31:33;;;;;;;3.53;2.65;;;;;;;29.62;51.81;100637.69;10252772;28;97472;-80
2023/06/15 11:36:39;;;;;;;3.78;2.50;;;;;;;29.80;51.91;100632.88;10254184;28;96719;-80
2023/06/15 11:41:47;;;;;;;2.30;1.88;;;;;;;29.98;51.67;100632.66;10253559;28;97045;-79
2023/06/15 11:46:53;;;;;;;3.15;2.50;;;;;;;30.09;49.39;100624.97;10252954;28;96882;-79
2023/06/15 11:51:59;;;;;;;3.25;2.50;;;;;;;30.25;49.62;100619.47;10221999;28;97255;-79
2023/06/15 11:57:02;;;;;;;2.30;1.77;;;;;;;30.44;48.80;100612.75;10212181;28;97195;-79
2023/06/15 12:02:06;;;;;;;2.72;2.20;;;;;;;30.51;47.63;100618.34;10212282;28;97998;-80
2023/06/15 12:07:11;;;;;;;2.30;1.60;;;;;;;30.46;45.30;100602.56;10212042;28;96671;-80
2023/06/15 12:12:35;;;;;;;1.77;1.50;;;;;;;30.54;44.06;100602.47;10212333;28;97706;-80
2023/06/15 12:17:38;;;;;;;2.33;1.80;;;;;;;30.59;43.95;100591.94;10211891;28;96837;-80
2023/06/15 12:22:45;;;;;;;2.15;1.73;;;;;;;30.66;44.14;100583.91;10212094;28;96742;-80
2023/06/15 12:27:50;;;;;;;2.10;1.80;;;;;;;31.05;44.23;100571.88;10211921;28;97347;-80
2023/06/15 12:32:57;;;;;;;2.50;1.73;;;;;;;31.12;44.03;100564.69;10210664;28;96855;-80
2023/06/15 12:38:02;;;;;;;3.15;1.90;;;;;;;31.24;45.19;100559.66;10210948;28;96683;-80
2023/06/15 12:43:06;;;;;;;2.42;1.88;;;;;;;31.29;44.21;100554.50;10210554;28;97085;-80
2023/06/15 12:48:09;;;;;;;2.20;1.80;;;;;;;31.46;44.25;100547.84;10210241;28;96793;-80
2023/06/15 12:53:15;;;;;;;2.20;1.70;;;;;;;31.60;44.89;100548.91;10210554;28;96859;-80
2023/06/15 12:58:18;;;;;;;2.20;2.00;;;;;;;31.77;45.58;100542.22;10210941;28;96715;-80
2023/06/15 13:03:21;;;;;;;2.05;1.77;;;;;;;31.76;45.12;100540.50;10210208;28;96615;-80
2023/06/15 13:08:29;;;;;;;2.38;2.08;;;;;;;31.82;43.99;100534.34;10209529;28;96789;-80
2023/06/15 13:13:33;;;;;;;2.10;1.80;;;;;;;32.01;44.53;100526.44;10209838;28;96905;-80
2023/06/15 13:18:37;;;;;;;2.55;1.67;;;;;;;31.92;42.85;100519.41;10210725;28;96718;-80
2023/06/15 13:23:42;;;;;;;3.28;1.90;;;;;;;31.77;42.59;100513.09;10209609;28;97254;-80
2023/06/15 13:28:45;;;;;;;3.42;2.03;;;;;;;31.76;41.72;100505.97;10209645;28;97691;-80
2023/06/15 13:33:48;;;;;;;;;;;;;;;31.98;41.53;100502.28;10209270;28;96650;-80
2023/06/15 13:38:53;;;;;;;2.10;1.73;;;;;;;31.98;42.66;100496.03;10209458;28;96946;-80
2023/06/15 13:43:57;;;;;;;2.30;1.73;;;;;;;31.90;41.22;100488.81;10208577;28;96699;-80
2023/06/15 13:49:00;;;;;;;2.80;2.13;;;;;;;32.13;41.79;100485.94;10208686;28;97210;-80
2023/06/15 13:54:09;;;;;;;2.45;1.70;;;;;;;32.16;41.46;100482.81;10208945;28;96726;-80
2023/06/15 13:59:12;;;;;;;2.25;1.83;;;;;;;32.24;41.32;100482.66;10208621;28;96818;-80
2023/06/15 14:04:15;;;;;;;2.47;1.88;;;;;;;32.29;40.75;100472.88;10208416;28;96901;-80
2023/06/15 14:09:20;;;;;;;2.40;1.73;;;;;;;32.38;40.81;100479.91;10208746;28;96704;-80
2023/06/15 14:14:23;;;;;;;3.60;1.80;;;;;;;32.48;40.86;100476.88;10208664;28;97847;-80
2023/06/15 14:19:27;;;;;;;2.33;1.92;;;;;;;32.57;40.81;100475.69;10208085;28;96853;-80
2023/06/15 14:24:31;;;;;;;2.40;1.85;;;;;;;32.44;40.38;100478.31;10212694;28;96631;-80
2023/06/15 14:29:35;;;;;;;2.10;1.90;;;;;;;32.69;41.17;100478.75;10215119;28;97102;-80
2023/06/15 14:34:56;;;;;;;2.22;1.70;;;;;;;32.69;39.95;100468.66;10211125;28;96709;-80
2023/06/15 14:40:01;;;;;;;1.70;1.45;;;;;;;32.74;39.99;100463.44;10215590;28;96959;-80
2023/06/15 14:45:05;;;;;;;2.08;1.65;;;;;;;32.77;39.65;100464.94;10214702;28;98006;-80
2023/06/15 14:50:09;;;;;;;2.55;1.60;;;;;;;32.78;38.85;100462.03;10214582;28;97977;-81
2023/06/15 14:55:14;;;;;;;2.40;1.70;;;;;;;32.82;38.87;100457.88;10219944;28;96781;-80
2023/06/15 15:00:18;;;;;;;3.05;1.83;;;;;;;32.89;38.31;100452.50;10255388;28;96763;-80
2023/06/15 15:05:22;;;;;;;1.55;1.27;;;;;;;33.00;38.34;100441.84;10253777;28;96862;-80
2023/06/15 15:10:27;;;;;;;1.95;1.60;;;;;;;33.00;37.26;100427.41;10254267;28;97346;-80
2023/06/15 15:15:30;;;;;;;2.40;1.77;;;;;;;33.00;37.59;100430.94;10252140;28;96870;-80
2023/06/15 15:20:34;;;;;;;1.70;1.50;;;;;;;33.13;37.08;100432.91;10254265;28;96907;-80
2023/06/15 15:25:38;;;;;;;1.77;1.35;;;;;;;33.15;36.44;100418.06;10253544;28;96787;-80
2023/06/15 15:30:42;;;;;;;1.95;1.35;;;;;;;33.18;36.00;100424.97;10253027;28;97002;-80
2023/06/15 15:35:45;;;;;;;1.40;1.30;;;;;;;33.15;35.94;100428.97;10252688;28;96746;-80
2023/06/15 15:40:50;;;;;;;2.05;1.60;;;;;;;33.11;36.26;100427.66;10253124;28;96856;-80
2023/06/15 15:45:53;;;;;;;2.38;1.73;;;;;;;33.02;36.00;100419.88;10251683;28;96788;-80
2023/06/15 15:50:56;;;;;;;2.42;1.50;;;;;;;32.99;36.21;100425.69;10222507;28;97150;-80
2023/06/15 15:56:01;;;;;;;2.40;1.80;;;;;;;32.87;36.73;100430.88;10211944;28;96729;-80
2023/06/15 16:01:05;;;;;;;1.83;1.50;;;;;;;32.74;36.71;100422.56;10212514;28;98058;-80
2023/06/15 16:06:08;;;;;;;1.95;1.60;;;;;;;32.70;36.69;100415.00;10211429;28;97081;-80
2023/06/15 16:11:13;;;;;;;1.67;1.50;;;;;;;32.59;37.03;100418.25;10211875;28;96834;-80
2023/06/15 16:16:16;;;;;;;2.63;1.90;;;;;;;32.46;37.40;100416.28;10211775;28;96737;-80
2023/06/15 16:21:23;;;;;;;1.95;1.63;;;;;;;32.43;38.02;100419.38;10205912;28;96598;-80
2023/06/15 16:26:28;;;;;;;2.40;1.80;;;;;;;32.36;37.54;100423.94;10211250;28;96905;-80
2023/06/15 16:31:31;;;;;;;1.98;1.58;;;;;;;32.24;37.91;100417.28;10211588;28;97791;-80
2023/06/15 16:36:35;;;;;;;2.65;2.13;;;;;;;31.91;38.35;100410.72;10216846;22;99199;-80
2023/06/15 16:41:39;;;;;;;3.15;2.65;;;;;;;31.83;41.35;100406.22;10212011;28;97050;-81
2023/06/15 16:46:47;;;;;;;3.67;3.28;;;;;;;31.61;42.16;100409.94;10209821;28;96708;-81
2023/06/15 16:51:50;;;;;;;4.57;3.60;;;;;;;31.57;42.99;100399.59;10210816;28;96745;-81
2023/06/15 16:56:55;;;;;;;3.25;2.95;;;;;;;31.46;43.41;100395.50;10209818;28;96839;-81
2023/06/15 17:01:58;;;;;;;4.22;3.30;;;;;;;31.46;43.43;100392.78;10210479;28;97106;-80
2023/06/15 17:07:03;;;;;;;3.80;3.20;;;;;;;31.56;42.94;100395.22;10210197;28;97022;-80
2023/06/15 17:12:25;;;;;;;4.07;3.40;;;;;;;31.48;43.58;100393.44;10222211;28;96724;-80
2023/06/15 17:17:28;;;;;;;4.25;3.25;;;;;;;31.42;43.69;100394.22;10250246;28;96774;-80
2023/06/15 17:22:33;;;;;;;3.80;3.40;;;;;;;31.37;44.30;100395.81;10250261;28;96988;-80
2023/06/15 17:27:37;;;;;;;3.88;3.08;;;;;;;31.33;44.44;100388.03;10249072;28;97511;-80
2023/06/15 17:32:41;;;;;;;4.18;3.20;;;;;;;31.46;44.09;100383.78;10217179;28;97240;-80
2023/06/15 17:37:44;;;;;;;4.05;3.05;;;;;;;31.24;45.02;100394.63;10168628;28;96572;-81
2023/06/15 17:42:51;;;;;;;;;;;;;;;31.18;46.15;100394.50;10169700;28;97080;-80
2023/06/15 17:47:54;;;;;;;4.55;3.10;;;;;;;30.98;45.07;100391.50;10196312;28;96715;-81
2023/06/15 17:52:57;;;;;;;4.05;3.17;;;;;;;30.91;46.06;100390.56;10209002;28;96877;-81
2023/06/15 17:58:20;;;;;;;4.07;3.30;;;;;;;30.76;46.02;100388.88;10201910;28;96705;-80
2023/06/15 18:03:23;;;;;;;4.43;2.85;;;;;;;30.66;45.87;100400.00;10209103;28;96799;-81
2023/06/15 18:08:27;;;;;;;4.05;3.00;;;;;;;30.56;46.25;100413.00;10208513;28;97505;-81
2023/06/15 18:13:32;;;;;;;3.60;2.70;;;;;;;30.49;47.08;100414.75;10208480;28;97004;-80
2023/06/15 18:18:53;;;;;;;3.17;2.70;;;;;;;30.27;46.74;100412.91;10208104;28;96602;-80
2023/06/15 18:23:56;;;;;;;;;;;;;;;30.12;47.04;100418.31;10209480;28;96573;-81
2023/06/15 18:29:01;;;;;;;4.43;2.80;;;;;;;30.02;46.42;100428.53;10208271;28;96733;-80
2023/06/15 18:34:04;;;;;;;3.58;2.63;;;;;;;29.94;46.48;100438.59;10206849;28;96811;-81
2023/06/15 18:39:09;;;;;;;3.20;2.50;;;;;;;29.84;46.55;100446.13;10206993;28;96855;-80
2023/06/15 18:44:14;;;;;;;3.58;2.40;;;;;;;29.59;45.44;100444.59;10207383;28;96731;-81
2023/06/15 18:49:17;;;;;;;3.08;2.22;;;;;;;29.44;46.14;100452.59;10207589;28;96859;-81
2023/06/15 18:54:21;;;;;;;2.70;2.17;;;;;;;29.32;45.07;100456.72;10220547;28;97631;-81
2023/06/15 18:59:25;;;;;;;2.67;2.15;;;;;;;29.25;45.15;100461.13;10247751;28;96598;-81
2023/06/15 19:04:29;;;;;;;2.70;2.10;;;;;;;29.17;44.67;100466.59;10247151;28;96702;-81
2023/06/15 19:09:32;;;;;;;2.63;2.35;;;;;;;29.04;45.70;100466.28;10248631;28;97585;-80
2023/06/15 19:14:37;;;;;;;;;;;;;;;28.93;46.64;100459.38;10255570;28;96739;-81
2023/06/15 19:19:40;;;;;;;3.60;2.10;;;;;;;28.79;46.55;100461.91;10254271;28;96847;-81
2023/06/15 19:24:44;;;;;;;;;;;;;;;28.70;45.06;100458.38;10254208;28;96718;-81
2023/06/15 19:29:49;;;;;;;3.30;2.10;;;;;;;28.63;46.27;100462.78;10252190;28;97418;-80
2023/06/15 19:34:52;;;;;;;2.85;2.17;;;;;;;28.46;46.21;100461.13;10218631;28;97996;-81
2023/06/15 19:39:56;;;;;;;2.70;2.05;;;;;;;28.40;45.90;100472.59;10213234;28;96784;-80
2023/06/15 19:45:00;;;;;;;2.38;1.90;;;;;;;28.40;45.90;100472.59;10213308;28;97357;-81
2023/06/15 19:50:04;;;;;;;2.50;2.00;;;;;;;28.31;46.17;100475.50;10212882;28;96617;-80
2023/06/15 19:55:08;;;;;;;2.85;1.88;;;;;;;28.03;48.03;100480.34;10212495;28;97648;-81
2023/06/15 20:00:13;;;;;;;2.78;1.80;;;;;;;27.85;48.89;100483.16;10212497;28;96849;-80
2023/06/15 20:05:16;;;;;;;3.63;2.10;;;;;;;27.66;49.45;100486.13;10213285;28;96693;-81
2023/06/15 20:10:20;;;;;;;3.70;1.92;;;;;;;27.51;50.22;100486.91;10212213;28;96776;-80
2023/06/15 20:15:24;;;;;;;;;;;;;;;27.40;50.56;100490.75;10212612;28;96903;-81
2023/06/15 20:20:27;;;;;;;;;;;;;;;27.29;50.33;100495.56;10212515;28;96911;-81
2023/06/15 20:25:30;;;;;;;2.67;2.03;;;;;;;27.14;50.90;100505.28;10211802;28;96727;-81
2023/06/15 20:30:35;;;;;;;3.25;2.03;;;;;;;27.05;50.87;100506.25;10211345;28;97427;-80
2023/06/15 20:35:38;;;;;;;2.67;2.05;;;;;;;26.90;51.70;100508.66;10181492;28;96867;-80
2023/06/15 20:40:42;;;;;;;2.67;2.20;;;;;;;26.81;51.76;100509.59;10211128;28;97054;-81
2023/06/15 20:45:46;;;;;;;3.40;1.90;;;;;;;26.63;52.72;100520.44;10211075;28;97013;-80
2023/06/15 20:50:50;;;;;;;2.67;2.05;;;;;;;26.48;52.79;100523.84;10210587;28;96733;-81
2023/06/15 20:55:53;;;;;;;3.73;1.80;;;;;;;26.43;52.77;100523.47;10212508;28;96785;-80
2023/06/15 21:00:58;;;;;;;2.53;2.23;;;;;;;26.35;52.63;100536.84;10210850;28;96853;-80
2023/06/15 21:06:01;;;;;;;2.38;1.80;;;;;;;26.14;53.49;100537.16;10209835;28;97668;-80
2023/06/15 21:11:05;;;;;;;2.40;1.70;;;;;;;26.12;53.95;100533.75;10209535;28;96646;-80
2023/06/15 21:16:09;;;;;;;3.03;2.03;;;;;;;26.19;53.25;100537.53;10209883;28;97221;-80
2023/06/15 21:21:13;;;;;;;2.92;2.15;;;;;;;25.86;54.23;100547.13;10209907;28;96894;-80
2023/06/15 21:26:16;;;;;;;3.00;1.90;;;;;;;25.87;54.10;100550.66;10210139;28;96848;-80
2023/06/15 21:31:21;;;;;;;2.97;1.77;;;;;;;25.77;54.22;100552.56;10208842;28;97037;-80
2023/06/15 21:36:24;;;;;;;3.17;2.17;;;;;;;25.77;54.92;100552.56;10208697;28;96745;-80
2023/06/15 21:41:31;;;;;;;2.92;2.00;;;;;;;25.48;55.61;100550.00;10209369;28;98051;-80
2023/06/15 21:46:36;;;;;;;2.95;2.28;;;;;;;25.35;56.00;100554.84;10209882;28;97009;-80
2023/06/15 21:51:39;;;;;;;2.05;1.80;;;;;;;25.32;56.17;100547.06;10209219;28;96842;-80
2023/06/15 21:56:43;;;;;;;2.88;1.80;;;;;;;25.09;56.43;100551.09;10207222;28;96816;-80
2023/06/15 22:01:48;;;;;;;2.72;1.95;;;;;;;25.22;56.14;100548.09;10225958;28;96677;-80
2023/06/15 22:07:08;;;;;;;3.40;2.40;;;;;;;25.16;56.25;100545.97;10247505;28;96675;-80
2023/06/15 22:12:12;;;;;;;3.60;2.08;;;;;;;24.95;57.11;100539.91;10248991;28;97776;-80
2023/06/15 22:17:17;;;;;;;3.97;2.53;;;;;;;24.78;57.58;100536.09;10247980;28;96804;-80
2023/06/15 22:22:21;;;;;;;4.00;2.20;;;;;;;24.81;57.25;100539.34;10248395;28;96836;-80
2023/06/15 22:27:24;;;;;;;;;;;;;;;24.90;57.89;100531.41;10248292;28;96992;-81
2023/06/15 22:32:29;;;;;;;3.03;2.15;;;;;;;24.64;57.63;100531.16;10218722;28;97886;-80
2023/06/15 22:37:33;;;;;;;3.22;2.13;;;;;;;24.65;57.83;100531.00;10201841;28;96977;-80
2023/06/15 22:42:36;;;;;;;3.07;2.17;;;;;;;24.61;57.94;100529.63;10207810;28;96856;-80
2023/06/15 22:47:41;;;;;;;3.07;2.03;;;;;;;24.73;57.70;100531.16;10214357;28;97066;-80
2023/06/15 22:52:45;;;;;;;3.30;2.30;;;;;;;24.71;57.69;100533.16;10213814;28;96936;-80
2023/06/15 22:57:48;;;;;;;4.23;2.27;;;;;;;24.79;57.44;100533.25;10214436;28;96632;-80
2023/06/15 23:02:53;;;;;;;4.40;2.57;;;;;;;24.89;57.19;100524.31;10214351;28;96784;-80
2023/06/15 23:07:59;;;;;;;2.80;1.80;;;;;;;24.71;58.12;100522.38;10214395;28;96893;-80
2023/06/15 23:13:02;;;;;;;3.65;2.33;;;;;;;24.66;58.44;100531.88;10214077;28;97253;-81
2023/06/15 23:18:09;;;;;;;2.50;1.92;;;;;;;24.44;59.26;100530.34;10214081;28;96857;-80
2023/06/15 23:23:14;;;;;;;2.90;2.20;;;;;;;24.51;59.06;100519.84;10213475;28;96790;-81
2023/06/15 23:28:19;;;;;;;2.90;2.15;;;;;;;24.34;59.85;100518.72;10214890;28;96637;-81
2023/06/15 23:33:24;;;;;;;2.92;2.33;;;;;;;24.24;60.24;100516.97;10213036;28;97223;-80